sensor_id;sensor_type;location;lat;lon;timestamp;P1;durP1;ratioP1;P2;durP2;ratioP2
72319;SDS011;60269;52.502;16.732;2023-12-20T00:00:38;6.90;;;1.33;;
72319;SDS011;60269;52.502;16.732;2023-12-20T00:04:30;5.23;;;1.20;;
72319;SDS011;60269;52.502;16.732;2023-12-20T00:08:02;6.47;;;1.67;;
72319;SDS011;60269;52.502;16.732;2023-12-20T00:11:36;4.97;;;1.20;;
72319;SDS011;60269;52.502;16.732;2023-12-20T00:15:08;4.23;;;1.17;;
72319;SDS011;60269;52.502;16.732;2023-12-20T00:18:40;7.78;;;1.77;;
72319;SDS011;60269;52.502;16.732;2023-12-20T00:22:12;4.53;;;1.23;;
72319;SDS011;60269;52.502;16.732;2023-12-20T00:25:44;5.60;;;1.50;;
72319;SDS011;60269;52.502;16.732;2023-12-20T00:29:16;6.65;;;1.40;;
72319;SDS011;60269;52.502;16.732;2023-12-20T00:32:48;5.32;;;1.38;;
72319;SDS011;60269;52.502;16.732;2023-12-20T00:36:20;3.70;;;0.80;;
72319;SDS011;60269;52.502;16.732;2023-12-20T00:39:52;6.10;;;1.27;;
72319;SDS011;60269;52.502;16.732;2023-12-20T00:43:24;6.75;;;1.23;;
72319;SDS011;60269;52.502;16.732;2023-12-20T00:46:57;5.00;;;1.00;;
72319;SDS011;60269;52.502;16.732;2023-12-20T00:50:29;5.70;;;1.50;;
72319;SDS011;60269;52.502;16.732;2023-12-20T00:54:01;5.32;;;1.15;;
72319;SDS011;60269;52.502;16.732;2023-12-20T00:57:33;4.25;;;0.80;;
72319;SDS011;60269;52.502;16.732;2023-12-20T01:01:06;4.73;;;1.00;;
72319;SDS011;60269;52.502;16.732;2023-12-20T01:04:38;5.57;;;1.15;;
72319;SDS011;60269;52.502;16.732;2023-12-20T01:08:10;5.18;;;0.70;;
72319;SDS011;60269;52.502;16.732;2023-12-20T01:11:42;7.05;;;1.00;;
72319;SDS011;60269;52.502;16.732;2023-12-20T01:15:14;4.47;;;0.90;;
72319;SDS011;60269;52.502;16.732;2023-12-20T01:18:46;6.57;;;1.42;;
72319;SDS011;60269;52.502;16.732;2023-12-20T01:22:18;5.35;;;1.17;;
72319;SDS011;60269;52.502;16.732;2023-12-20T01:25:50;5.10;;;1.23;;
72319;SDS011;60269;52.502;16.732;2023-12-20T01:29:22;5.40;;;1.20;;
72319;SDS011;60269;52.502;16.732;2023-12-20T01:32:54;6.30;;;1.63;;
72319;SDS011;60269;52.502;16.732;2023-12-20T01:36:26;7.37;;;1.60;;
72319;SDS011;60269;52.502;16.732;2023-12-20T01:39:59;5.55;;;1.42;;
72319;SDS011;60269;52.502;16.732;2023-12-20T01:43:31;3.83;;;0.98;;
72319;SDS011;60269;52.502;16.732;2023-12-20T01:47:18;6.10;;;1.48;;
72319;SDS011;60269;52.502;16.732;2023-12-20T01:50:50;5.43;;;1.00;;
72319;SDS011;60269;52.502;16.732;2023-12-20T01:54:23;6.13;;;1.40;;
72319;SDS011;60269;52.502;16.732;2023-12-20T01:57:55;5.32;;;1.42;;
72319;SDS011;60269;52.502;16.732;2023-12-20T02:01:28;5.03;;;1.20;;
72319;SDS011;60269;52.502;16.732;2023-12-20T02:05:01;5.47;;;1.10;;
72319;SDS011;60269;52.502;16.732;2023-12-20T02:08:34;10.90;;;1.67;;
72319;SDS011;60269;52.502;16.732;2023-12-20T02:12:07;4.47;;;0.97;;
72319;SDS011;60269;52.502;16.732;2023-12-20T02:15:39;5.97;;;1.13;;
72319;SDS011;60269;52.502;16.732;2023-12-20T02:19:14;5.45;;;1.20;;
72319;SDS011;60269;52.502;16.732;2023-12-20T02:22:47;4.85;;;1.08;;
72319;SDS011;60269;52.502;16.732;2023-12-20T02:26:19;7.07;;;1.50;;
72319;SDS011;60269;52.502;16.732;2023-12-20T02:29:51;5.88;;;1.38;;
72319;SDS011;60269;52.502;16.732;2023-12-20T02:33:23;5.07;;;1.15;;
72319;SDS011;60269;52.502;16.732;2023-12-20T02:36:55;6.23;;;1.43;;
72319;SDS011;60269;52.502;16.732;2023-12-20T02:40:27;5.55;;;1.05;;
72319;SDS011;60269;52.502;16.732;2023-12-20T02:44:00;5.47;;;1.23;;
72319;SDS011;60269;52.502;16.732;2023-12-20T02:47:32;6.97;;;1.60;;
72319;SDS011;60269;52.502;16.732;2023-12-20T02:51:04;7.20;;;1.92;;
72319;SDS011;60269;52.502;16.732;2023-12-20T02:54:37;5.95;;;1.23;;
72319;SDS011;60269;52.502;16.732;2023-12-20T02:58:09;7.47;;;1.33;;
72319;SDS011;60269;52.502;16.732;2023-12-20T03:01:44;6.37;;;1.30;;
72319;SDS011;60269;52.502;16.732;2023-12-20T03:05:17;5.35;;;1.20;;
72319;SDS011;60269;52.502;16.732;2023-12-20T03:08:49;5.30;;;1.10;;
72319;SDS011;60269;52.502;16.732;2023-12-20T03:12:21;6.57;;;1.30;;
72319;SDS011;60269;52.502;16.732;2023-12-20T03:15:54;5.57;;;1.10;;
72319;SDS011;60269;52.502;16.732;2023-12-20T03:19:26;6.07;;;1.27;;
72319;SDS011;60269;52.502;16.732;2023-12-20T03:22:58;6.57;;;1.37;;
72319;SDS011;60269;52.502;16.732;2023-12-20T03:26:30;4.57;;;0.98;;
72319;SDS011;60269;52.502;16.732;2023-12-20T03:30:02;6.72;;;1.20;;
72319;SDS011;60269;52.502;16.732;2023-12-20T03:33:34;5.20;;;1.15;;
72319;SDS011;60269;52.502;16.732;2023-12-20T03:37:06;5.30;;;0.90;;
72319;SDS011;60269;52.502;16.732;2023-12-20T03:40:38;5.40;;;1.33;;
72319;SDS011;60269;52.502;16.732;2023-12-20T03:44:11;4.65;;;0.75;;
72319;SDS011;60269;52.502;16.732;2023-12-20T03:47:43;4.97;;;1.00;;
72319;SDS011;60269;52.502;16.732;2023-12-20T03:51:15;5.40;;;1.15;;
72319;SDS011;60269;52.502;16.732;2023-12-20T03:54:47;4.68;;;0.90;;
72319;SDS011;60269;52.502;16.732;2023-12-20T03:58:19;5.57;;;1.10;;
72319;SDS011;60269;52.502;16.732;2023-12-20T04:01:51;5.40;;;1.05;;
72319;SDS011;60269;52.502;16.732;2023-12-20T04:05:23;6.43;;;1.10;;
72319;SDS011;60269;52.502;16.732;2023-12-20T04:08:55;3.80;;;0.68;;
72319;SDS011;60269;52.502;16.732;2023-12-20T04:12:28;5.67;;;1.20;;
72319;SDS011;60269;52.502;16.732;2023-12-20T04:16:00;4.50;;;0.93;;
72319;SDS011;60269;52.502;16.732;2023-12-20T04:19:32;4.85;;;1.25;;
72319;SDS011;60269;52.502;16.732;2023-12-20T04:23:04;4.77;;;1.00;;
72319;SDS011;60269;52.502;16.732;2023-12-20T04:26:36;6.75;;;1.02;;
72319;SDS011;60269;52.502;16.732;2023-12-20T04:30:08;4.68;;;0.82;;
72319;SDS011;60269;52.502;16.732;2023-12-20T04:33:40;4.90;;;1.17;;
72319;SDS011;60269;52.502;16.732;2023-12-20T04:37:12;5.15;;;1.17;;
72319;SDS011;60269;52.502;16.732;2023-12-20T04:40:45;3.33;;;0.68;;
72319;SDS011;60269;52.502;16.732;2023-12-20T04:44:16;4.95;;;1.02;;
72319;SDS011;60269;52.502;16.732;2023-12-20T04:47:48;7.23;;;1.30;;
72319;SDS011;60269;52.502;16.732;2023-12-20T04:51:20;7.47;;;1.40;;
72319;SDS011;60269;52.502;16.732;2023-12-20T04:54:53;8.00;;;1.27;;
72319;SDS011;60269;52.502;16.732;2023-12-20T04:58:25;5.40;;;1.10;;
72319;SDS011;60269;52.502;16.732;2023-12-20T05:01:57;5.38;;;1.38;;
72319;SDS011;60269;52.502;16.732;2023-12-20T05:05:30;6.75;;;1.10;;
72319;SDS011;60269;52.502;16.732;2023-12-20T05:09:02;5.67;;;1.33;;
72319;SDS011;60269;52.502;16.732;2023-12-20T05:12:35;4.60;;;1.02;;
72319;SDS011;60269;52.502;16.732;2023-12-20T05:16:07;5.35;;;1.15;;
72319;SDS011;60269;52.502;16.732;2023-12-20T05:19:39;6.13;;;1.70;;
72319;SDS011;60269;52.502;16.732;2023-12-20T05:23:11;6.13;;;1.40;;
72319;SDS011;60269;52.502;16.732;2023-12-20T05:26:43;7.80;;;1.52;;
72319;SDS011;60269;52.502;16.732;2023-12-20T05:30:15;5.10;;;1.05;;
72319;SDS011;60269;52.502;16.732;2023-12-20T05:33:47;5.20;;;1.10;;
72319;SDS011;60269;52.502;16.732;2023-12-20T05:37:19;7.35;;;1.42;;
72319;SDS011;60269;52.502;16.732;2023-12-20T05:40:51;8.82;;;1.50;;
72319;SDS011;60269;52.502;16.732;2023-12-20T05:44:23;7.00;;;1.73;;
72319;SDS011;60269;52.502;16.732;2023-12-20T05:47:55;5.45;;;1.52;;
72319;SDS011;60269;52.502;16.732;2023-12-20T05:51:27;6.53;;;1.75;;
72319;SDS011;60269;52.502;16.732;2023-12-20T05:54:58;6.85;;;1.70;;
72319;SDS011;60269;52.502;16.732;2023-12-20T05:58:33;5.90;;;1.30;;
72319;SDS011;60269;52.502;16.732;2023-12-20T06:02:05;5.90;;;1.48;;
72319;SDS011;60269;52.502;16.732;2023-12-20T06:05:37;4.45;;;1.08;;
72319;SDS011;60269;52.502;16.732;2023-12-20T06:09:09;6.83;;;1.27;;
72319;SDS011;60269;52.502;16.732;2023-12-20T06:12:42;4.88;;;1.08;;
72319;SDS011;60269;52.502;16.732;2023-12-20T06:16:14;5.68;;;1.75;;
72319;SDS011;60269;52.502;16.732;2023-12-20T06:19:46;5.43;;;1.43;;
72319;SDS011;60269;52.502;16.732;2023-12-20T06:23:20;5.53;;;1.30;;
72319;SDS011;60269;52.502;16.732;2023-12-20T06:26:52;6.43;;;1.63;;
72319;SDS011;60269;52.502;16.732;2023-12-20T06:30:24;8.40;;;1.92;;
72319;SDS011;60269;52.502;16.732;2023-12-20T06:33:56;6.23;;;1.40;;
72319;SDS011;60269;52.502;16.732;2023-12-20T06:37:31;6.85;;;1.60;;
72319;SDS011;60269;52.502;16.732;2023-12-20T06:41:03;5.20;;;1.05;;
72319;SDS011;60269;52.502;16.732;2023-12-20T06:44:35;6.77;;;1.77;;
72319;SDS011;60269;52.502;16.732;2023-12-20T06:48:08;8.85;;;2.00;;
72319;SDS011;60269;52.502;16.732;2023-12-20T06:51:40;6.38;;;1.10;;
72319;SDS011;60269;52.502;16.732;2023-12-20T06:55:12;4.70;;;1.00;;
72319;SDS011;60269;52.502;16.732;2023-12-20T06:58:44;9.32;;;1.63;;
72319;SDS011;60269;52.502;16.732;2023-12-20T07:02:16;6.50;;;1.30;;
72319;SDS011;60269;52.502;16.732;2023-12-20T07:05:48;5.65;;;1.52;;
72319;SDS011;60269;52.502;16.732;2023-12-20T07:09:20;6.53;;;1.03;;
72319;SDS011;60269;52.502;16.732;2023-12-20T07:12:52;5.90;;;1.65;;
72319;SDS011;60269;52.502;16.732;2023-12-20T07:16:27;4.65;;;1.10;;
72319;SDS011;60269;52.502;16.732;2023-12-20T07:19:59;6.63;;;1.40;;
72319;SDS011;60269;52.502;16.732;2023-12-20T07:23:35;7.32;;;1.38;;
72319;SDS011;60269;52.502;16.732;2023-12-20T07:27:07;7.40;;;1.70;;
72319;SDS011;60269;52.502;16.732;2023-12-20T07:30:39;6.23;;;1.30;;
72319;SDS011;60269;52.502;16.732;2023-12-20T07:34:11;5.60;;;1.40;;
72319;SDS011;60269;52.502;16.732;2023-12-20T07:37:44;5.50;;;1.30;;
72319;SDS011;60269;52.502;16.732;2023-12-20T07:41:16;7.93;;;2.10;;
72319;SDS011;60269;52.502;16.732;2023-12-20T07:44:48;6.87;;;1.70;;
72319;SDS011;60269;52.502;16.732;2023-12-20T07:48:20;6.85;;;1.80;;
72319;SDS011;60269;52.502;16.732;2023-12-20T07:51:52;6.45;;;1.50;;
72319;SDS011;60269;52.502;16.732;2023-12-20T07:55:25;7.17;;;1.97;;
72319;SDS011;60269;52.502;16.732;2023-12-20T07:58:57;9.27;;;2.28;;
72319;SDS011;60269;52.502;16.732;2023-12-20T08:02:31;8.63;;;2.65;;
72319;SDS011;60269;52.502;16.732;2023-12-20T08:06:03;5.80;;;1.83;;
72319;SDS011;60269;52.502;16.732;2023-12-20T08:09:35;9.00;;;2.08;;
72319;SDS011;60269;52.502;16.732;2023-12-20T08:13:08;7.25;;;1.42;;
72319;SDS011;60269;52.502;16.732;2023-12-20T08:16:40;7.20;;;1.40;;
72319;SDS011;60269;52.502;16.732;2023-12-20T08:20:12;8.17;;;1.47;;
72319;SDS011;60269;52.502;16.732;2023-12-20T08:23:50;5.15;;;1.17;;
72319;SDS011;60269;52.502;16.732;2023-12-20T08:27:22;6.85;;;0.93;;
72319;SDS011;60269;52.502;16.732;2023-12-20T08:30:54;4.73;;;0.80;;
72319;SDS011;60269;52.502;16.732;2023-12-20T08:34:26;4.78;;;1.08;;
72319;SDS011;60269;52.502;16.732;2023-12-20T08:37:59;6.43;;;1.15;;
72319;SDS011;60269;52.502;16.732;2023-12-20T08:41:31;6.90;;;0.73;;
72319;SDS011;60269;52.502;16.732;2023-12-20T08:45:04;3.92;;;0.73;;
72319;SDS011;60269;52.502;16.732;2023-12-20T08:48:36;4.68;;;0.63;;
72319;SDS011;60269;52.502;16.732;2023-12-20T08:52:09;4.75;;;0.85;;
72319;SDS011;60269;52.502;16.732;2023-12-20T08:55:41;6.33;;;0.80;;
72319;SDS011;60269;52.502;16.732;2023-12-20T08:59:13;5.93;;;0.93;;
72319;SDS011;60269;52.502;16.732;2023-12-20T09:02:46;4.65;;;1.00;;
72319;SDS011;60269;52.502;16.732;2023-12-20T09:06:18;5.63;;;1.00;;
72319;SDS011;60269;52.502;16.732;2023-12-20T09:09:51;5.18;;;1.02;;
72319;SDS011;60269;52.502;16.732;2023-12-20T09:13:23;6.10;;;0.85;;
72319;SDS011;60269;52.502;16.732;2023-12-20T09:17:00;5.80;;;0.93;;
72319;SDS011;60269;52.502;16.732;2023-12-20T09:20:33;6.80;;;0.90;;
72319;SDS011;60269;52.502;16.732;2023-12-20T09:24:05;5.43;;;0.63;;
72319;SDS011;60269;52.502;16.732;2023-12-20T09:27:38;3.50;;;0.70;;
72319;SDS011;60269;52.502;16.732;2023-12-20T09:31:10;4.67;;;0.70;;
72319;SDS011;60269;52.502;16.732;2023-12-20T09:34:42;6.25;;;0.82;;
72319;SDS011;60269;52.502;16.732;2023-12-20T09:38:14;9.18;;;0.85;;
72319;SDS011;60269;52.502;16.732;2023-12-20T09:42:08;4.10;;;0.60;;
72319;SDS011;60269;52.502;16.732;2023-12-20T09:45:44;5.32;;;0.60;;
72319;SDS011;60269;52.502;16.732;2023-12-20T09:49:18;3.17;;;0.63;;
72319;SDS011;60269;52.502;16.732;2023-12-20T09:52:51;6.30;;;0.80;;
72319;SDS011;60269;52.502;16.732;2023-12-20T09:56:24;7.30;;;0.90;;
72319;SDS011;60269;52.502;16.732;2023-12-20T09:59:56;3.10;;;0.52;;
72319;SDS011;60269;52.502;16.732;2023-12-20T10:03:29;5.78;;;1.33;;
72319;SDS011;60269;52.502;16.732;2023-12-20T10:07:02;5.87;;;0.93;;
72319;SDS011;60269;52.502;16.732;2023-12-20T10:10:38;3.85;;;0.70;;
72319;SDS011;60269;52.502;16.732;2023-12-20T10:14:19;5.03;;;0.73;;
72319;SDS011;60269;52.502;16.732;2023-12-20T10:17:50;5.67;;;1.57;;
72319;SDS011;60269;52.502;16.732;2023-12-20T10:21:23;7.75;;;0.60;;
72319;SDS011;60269;52.502;16.732;2023-12-20T10:24:58;3.70;;;0.65;;
72319;SDS011;60269;52.502;16.732;2023-12-20T10:28:33;3.90;;;0.53;;
72319;SDS011;60269;52.502;16.732;2023-12-20T10:35:58;1.48;;;0.20;;
72319;SDS011;60269;52.502;16.732;2023-12-20T10:39:30;4.38;;;0.85;;
72319;SDS011;60269;52.502;16.732;2023-12-20T10:43:04;5.10;;;0.53;;
72319;SDS011;60269;52.502;16.732;2023-12-20T10:46:37;4.55;;;0.80;;
72319;SDS011;60269;52.502;16.732;2023-12-20T10:50:12;2.88;;;0.57;;
72319;SDS011;60269;52.502;16.732;2023-12-20T10:53:44;6.23;;;0.47;;
72319;SDS011;60269;52.502;16.732;2023-12-20T10:57:22;5.00;;;1.67;;
72319;SDS011;60269;52.502;16.732;2023-12-20T11:00:57;3.58;;;0.25;;
72319;SDS011;60269;52.502;16.732;2023-12-20T11:12:06;4.18;;;0.55;;
72319;SDS011;60269;52.502;16.732;2023-12-20T11:15:41;10.98;;;0.90;;
72319;SDS011;60269;52.502;16.732;2023-12-20T11:19:13;11.53;;;1.47;;
72319;SDS011;60269;52.502;16.732;2023-12-20T11:22:52;8.05;;;0.93;;
72319;SDS011;60269;52.502;16.732;2023-12-20T11:26:29;2.72;;;0.32;;
72319;SDS011;60269;52.502;16.732;2023-12-20T11:30:04;1.23;;;0.30;;
72319;SDS011;60269;52.502;16.732;2023-12-20T11:33:38;3.10;;;0.40;;
72319;SDS011;60269;52.502;16.732;2023-12-20T11:37:11;4.68;;;0.60;;
72319;SDS011;60269;52.502;16.732;2023-12-20T11:40:44;2.30;;;0.60;;
72319;SDS011;60269;52.502;16.732;2023-12-20T11:44:19;2.50;;;0.50;;
72319;SDS011;60269;52.502;16.732;2023-12-20T11:47:52;3.53;;;0.70;;
72319;SDS011;60269;52.502;16.732;2023-12-20T11:51:27;8.10;;;0.70;;
72319;SDS011;60269;52.502;16.732;2023-12-20T11:55:00;3.90;;;0.40;;
72319;SDS011;60269;52.502;16.732;2023-12-20T11:58:32;8.68;;;0.95;;
72319;SDS011;60269;52.502;16.732;2023-12-20T12:02:05;9.80;;;0.63;;
72319;SDS011;60269;52.502;16.732;2023-12-20T12:05:37;4.20;;;0.53;;
72319;SDS011;60269;52.502;16.732;2023-12-20T12:09:09;2.92;;;0.50;;
72319;SDS011;60269;52.502;16.732;2023-12-20T12:12:41;3.63;;;0.20;;
72319;SDS011;60269;52.502;16.732;2023-12-20T12:16:20;8.10;;;0.73;;
72319;SDS011;60269;52.502;16.732;2023-12-20T12:19:53;4.15;;;0.38;;
72319;SDS011;60269;52.502;16.732;2023-12-20T12:23:34;2.67;;;0.40;;
72319;SDS011;60269;52.502;16.732;2023-12-20T12:27:06;4.05;;;0.60;;
72319;SDS011;60269;52.502;16.732;2023-12-20T12:30:38;2.80;;;0.40;;
72319;SDS011;60269;52.502;16.732;2023-12-20T12:34:24;10.13;;;0.70;;
72319;SDS011;60269;52.502;16.732;2023-12-20T12:37:58;3.85;;;0.60;;
72319;SDS011;60269;52.502;16.732;2023-12-20T12:41:31;3.60;;;0.90;;
72319;SDS011;60269;52.502;16.732;2023-12-20T12:45:03;4.35;;;0.30;;
72319;SDS011;60269;52.502;16.732;2023-12-20T12:48:36;2.80;;;0.50;;
72319;SDS011;60269;52.502;16.732;2023-12-20T12:52:08;5.87;;;0.73;;
72319;SDS011;60269;52.502;16.732;2023-12-20T12:55:40;5.90;;;0.85;;
72319;SDS011;60269;52.502;16.732;2023-12-20T12:59:12;5.95;;;0.65;;
72319;SDS011;60269;52.502;16.732;2023-12-20T13:02:43;7.63;;;0.40;;
72319;SDS011;60269;52.502;16.732;2023-12-20T13:06:15;4.07;;;0.63;;
72319;SDS011;60269;52.502;16.732;2023-12-20T13:09:47;2.47;;;0.50;;
72319;SDS011;60269;52.502;16.732;2023-12-20T13:13:20;5.05;;;0.60;;
72319;SDS011;60269;52.502;16.732;2023-12-20T13:16:52;3.47;;;0.50;;
72319;SDS011;60269;52.502;16.732;2023-12-20T13:20:24;5.97;;;0.60;;
72319;SDS011;60269;52.502;16.732;2023-12-20T13:23:56;5.28;;;0.32;;
72319;SDS011;60269;52.502;16.732;2023-12-20T13:27:28;5.83;;;0.80;;
72319;SDS011;60269;52.502;16.732;2023-12-20T13:31:00;3.33;;;0.43;;
72319;SDS011;60269;52.502;16.732;2023-12-20T13:34:32;10.90;;;0.60;;
72319;SDS011;60269;52.502;16.732;2023-12-20T13:38:05;3.35;;;0.63;;
72319;SDS011;60269;52.502;16.732;2023-12-20T13:41:36;5.87;;;0.77;;
72319;SDS011;60269;52.502;16.732;2023-12-20T13:45:09;10.00;;;0.68;;
72319;SDS011;60269;52.502;16.732;2023-12-20T13:48:41;3.13;;;0.50;;
72319;SDS011;60269;52.502;16.732;2023-12-20T13:52:13;7.40;;;0.50;;
72319;SDS011;60269;52.502;16.732;2023-12-20T13:55:44;1.27;;;0.20;;
72319;SDS011;60269;52.502;16.732;2023-12-20T13:59:17;3.53;;;0.30;;
72319;SDS011;60269;52.502;16.732;2023-12-20T14:02:49;2.80;;;0.70;;
72319;SDS011;60269;52.502;16.732;2023-12-20T14:06:21;9.02;;;0.60;;
72319;SDS011;60269;52.502;16.732;2023-12-20T14:09:53;10.45;;;1.05;;
72319;SDS011;60269;52.502;16.732;2023-12-20T14:13:25;8.02;;;0.85;;
72319;SDS011;60269;52.502;16.732;2023-12-20T14:16:58;3.00;;;0.40;;
72319;SDS011;60269;52.502;16.732;2023-12-20T14:20:29;7.40;;;0.47;;
72319;SDS011;60269;52.502;16.732;2023-12-20T14:24:01;5.82;;;0.82;;
72319;SDS011;60269;52.502;16.732;2023-12-20T14:27:35;5.63;;;0.63;;
72319;SDS011;60269;52.502;16.732;2023-12-20T14:31:07;5.13;;;0.75;;
72319;SDS011;60269;52.502;16.732;2023-12-20T14:34:40;3.10;;;0.40;;
72319;SDS011;60269;52.502;16.732;2023-12-20T14:38:12;2.50;;;0.47;;
72319;SDS011;60269;52.502;16.732;2023-12-20T14:41:46;4.38;;;0.68;;
72319;SDS011;60269;52.502;16.732;2023-12-20T14:45:18;4.03;;;0.70;;
72319;SDS011;60269;52.502;16.732;2023-12-20T14:48:51;4.72;;;0.40;;
72319;SDS011;60269;52.502;16.732;2023-12-20T14:52:23;2.90;;;0.30;;
72319;SDS011;60269;52.502;16.732;2023-12-20T14:55:55;5.75;;;0.47;;
72319;SDS011;60269;52.502;16.732;2023-12-20T14:59:27;3.97;;;0.57;;
72319;SDS011;60269;52.502;16.732;2023-12-20T15:02:59;5.17;;;0.40;;
72319;SDS011;60269;52.502;16.732;2023-12-20T15:06:31;5.03;;;0.50;;
72319;SDS011;60269;52.502;16.732;2023-12-20T15:10:04;4.20;;;0.63;;
72319;SDS011;60269;52.502;16.732;2023-12-20T15:13:37;4.07;;;1.50;;
72319;SDS011;60269;52.502;16.732;2023-12-20T15:17:09;5.07;;;0.85;;
72319;SDS011;60269;52.502;16.732;2023-12-20T15:20:41;2.20;;;0.40;;
72319;SDS011;60269;52.502;16.732;2023-12-20T15:24:15;3.58;;;0.57;;
72319;SDS011;60269;52.502;16.732;2023-12-20T15:27:49;4.27;;;0.50;;
72319;SDS011;60269;52.502;16.732;2023-12-20T15:31:25;3.40;;;0.30;;
72319;SDS011;60269;52.502;16.732;2023-12-20T15:34:58;13.20;;;0.50;;
72319;SDS011;60269;52.502;16.732;2023-12-20T15:38:30;2.43;;;0.10;;
72319;SDS011;60269;52.502;16.732;2023-12-20T15:42:02;0.88;;;0.10;;
72319;SDS011;60269;52.502;16.732;2023-12-20T15:45:34;1.38;;;0.30;;
72319;SDS011;60269;52.502;16.732;2023-12-20T15:49:06;0.83;;;0.10;;
72319;SDS011;60269;52.502;16.732;2023-12-20T15:52:38;1.02;;;0.10;;
72319;SDS011;60269;52.502;16.732;2023-12-20T15:56:11;1.15;;;0.20;;
72319;SDS011;60269;52.502;16.732;2023-12-20T15:59:43;0.63;;;0.00;;
72319;SDS011;60269;52.502;16.732;2023-12-20T16:03:15;1.27;;;0.10;;
72319;SDS011;60269;52.502;16.732;2023-12-20T16:06:56;0.65;;;0.10;;
72319;SDS011;60269;52.502;16.732;2023-12-20T16:10:30;2.05;;;0.17;;
72319;SDS011;60269;52.502;16.732;2023-12-20T16:14:03;0.43;;;0.07;;
72319;SDS011;60269;52.502;16.732;2023-12-20T16:17:35;1.17;;;0.10;;
72319;SDS011;60269;52.502;16.732;2023-12-20T16:21:08;2.88;;;0.40;;
72319;SDS011;60269;52.502;16.732;2023-12-20T16:24:40;1.20;;;0.20;;
72319;SDS011;60269;52.502;16.732;2023-12-20T16:28:12;2.33;;;0.10;;
72319;SDS011;60269;52.502;16.732;2023-12-20T16:31:44;1.40;;;0.20;;
72319;SDS011;60269;52.502;16.732;2023-12-20T16:35:17;0.55;;;0.10;;
72319;SDS011;60269;52.502;16.732;2023-12-20T16:38:49;0.43;;;0.07;;
72319;SDS011;60269;52.502;16.732;2023-12-20T16:42:21;0.98;;;0.20;;
72319;SDS011;60269;52.502;16.732;2023-12-20T16:45:53;1.10;;;0.10;;
72319;SDS011;60269;52.502;16.732;2023-12-20T16:49:26;1.17;;;0.10;;
72319;SDS011;60269;52.502;16.732;2023-12-20T16:52:58;1.33;;;0.20;;
72319;SDS011;60269;52.502;16.732;2023-12-20T16:56:30;2.28;;;0.20;;
72319;SDS011;60269;52.502;16.732;2023-12-20T17:00:02;2.60;;;0.40;;
72319;SDS011;60269;52.502;16.732;2023-12-20T17:03:35;2.60;;;0.30;;
72319;SDS011;60269;52.502;16.732;2023-12-20T17:07:07;2.85;;;0.40;;
72319;SDS011;60269;52.502;16.732;2023-12-20T17:10:39;5.18;;;0.70;;
72319;SDS011;60269;52.502;16.732;2023-12-20T17:14:11;5.80;;;0.30;;
72319;SDS011;60269;52.502;16.732;2023-12-20T17:17:44;5.68;;;0.63;;
72319;SDS011;60269;52.502;16.732;2023-12-20T17:21:18;2.70;;;0.40;;
72319;SDS011;60269;52.502;16.732;2023-12-20T17:24:50;2.83;;;0.50;;
72319;SDS011;60269;52.502;16.732;2023-12-20T17:28:22;1.88;;;0.43;;
72319;SDS011;60269;52.502;16.732;2023-12-20T17:31:54;5.45;;;0.40;;
72319;SDS011;60269;52.502;16.732;2023-12-20T17:35:26;0.87;;;0.13;;
72319;SDS011;60269;52.502;16.732;2023-12-20T17:38:59;3.33;;;0.40;;
72319;SDS011;60269;52.502;16.732;2023-12-20T17:42:31;1.13;;;0.35;;
72319;SDS011;60269;52.502;16.732;2023-12-20T17:46:03;2.63;;;0.30;;
72319;SDS011;60269;52.502;16.732;2023-12-20T17:49:36;1.77;;;0.27;;
72319;SDS011;60269;52.502;16.732;2023-12-20T17:53:08;1.40;;;0.15;;
72319;SDS011;60269;52.502;16.732;2023-12-20T17:56:40;2.40;;;0.20;;
72319;SDS011;60269;52.502;16.732;2023-12-20T18:00:12;1.53;;;0.20;;
72319;SDS011;60269;52.502;16.732;2023-12-20T18:03:47;4.00;;;0.20;;
72319;SDS011;60269;52.502;16.732;2023-12-20T18:07:19;1.77;;;0.20;;
72319;SDS011;60269;52.502;16.732;2023-12-20T18:10:51;2.60;;;0.20;;
72319;SDS011;60269;52.502;16.732;2023-12-20T18:14:23;1.92;;;0.17;;
72319;SDS011;60269;52.502;16.732;2023-12-20T18:17:55;2.63;;;0.47;;
72319;SDS011;60269;52.502;16.732;2023-12-20T18:21:27;4.97;;;0.30;;
72319;SDS011;60269;52.502;16.732;2023-12-20T18:24:59;1.93;;;0.30;;
72319;SDS011;60269;52.502;16.732;2023-12-20T18:28:31;9.60;;;0.57;;
72319;SDS011;60269;52.502;16.732;2023-12-20T18:32:04;4.25;;;0.40;;
72319;SDS011;60269;52.502;16.732;2023-12-20T18:35:36;2.03;;;0.17;;
72319;SDS011;60269;52.502;16.732;2023-12-20T18:39:11;1.90;;;0.15;;
72319;SDS011;60269;52.502;16.732;2023-12-20T18:42:43;7.68;;;0.30;;
72319;SDS011;60269;52.502;16.732;2023-12-20T18:46:15;4.63;;;0.70;;
72319;SDS011;60269;52.502;16.732;2023-12-20T18:49:47;2.45;;;0.40;;
72319;SDS011;60269;52.502;16.732;2023-12-20T18:53:19;2.38;;;0.30;;
72319;SDS011;60269;52.502;16.732;2023-12-20T18:56:51;1.60;;;0.15;;
72319;SDS011;60269;52.502;16.732;2023-12-20T19:00:25;3.73;;;0.47;;
72319;SDS011;60269;52.502;16.732;2023-12-20T19:03:57;1.38;;;0.20;;
72319;SDS011;60269;52.502;16.732;2023-12-20T19:07:29;1.55;;;0.20;;
72319;SDS011;60269;52.502;16.732;2023-12-20T19:11:02;3.20;;;0.37;;
72319;SDS011;60269;52.502;16.732;2023-12-20T19:14:34;4.28;;;0.73;;
72319;SDS011;60269;52.502;16.732;2023-12-20T19:18:06;2.20;;;0.32;;
72319;SDS011;60269;52.502;16.732;2023-12-20T19:21:38;4.47;;;0.70;;
72319;SDS011;60269;52.502;16.732;2023-12-20T19:25:10;5.20;;;0.50;;
72319;SDS011;60269;52.502;16.732;2023-12-20T19:28:42;3.63;;;0.40;;
72319;SDS011;60269;52.502;16.732;2023-12-20T19:32:15;2.50;;;0.40;;
72319;SDS011;60269;52.502;16.732;2023-12-20T19:35:48;3.57;;;0.47;;
72319;SDS011;60269;52.502;16.732;2023-12-20T19:39:20;5.05;;;0.88;;
72319;SDS011;60269;52.502;16.732;2023-12-20T19:42:51;2.40;;;0.40;;
72319;SDS011;60269;52.502;16.732;2023-12-20T19:46:24;5.50;;;0.70;;
72319;SDS011;60269;52.502;16.732;2023-12-20T19:49:57;5.40;;;1.00;;
72319;SDS011;60269;52.502;16.732;2023-12-20T19:53:29;3.30;;;0.50;;
72319;SDS011;60269;52.502;16.732;2023-12-20T19:57:01;6.87;;;1.03;;
72319;SDS011;60269;52.502;16.732;2023-12-20T20:00:34;5.53;;;0.70;;
72319;SDS011;60269;52.502;16.732;2023-12-20T20:04:20;4.72;;;0.93;;
72319;SDS011;60269;52.502;16.732;2023-12-20T20:07:52;7.63;;;0.75;;
72319;SDS011;60269;52.502;16.732;2023-12-20T20:11:24;3.77;;;0.50;;
72319;SDS011;60269;52.502;16.732;2023-12-20T20:15:06;5.07;;;0.52;;
72319;SDS011;60269;52.502;16.732;2023-12-20T20:18:38;8.05;;;0.90;;
72319;SDS011;60269;52.502;16.732;2023-12-20T20:22:11;2.63;;;0.40;;
72319;SDS011;60269;52.502;16.732;2023-12-20T20:25:44;3.58;;;0.50;;
72319;SDS011;60269;52.502;16.732;2023-12-20T20:29:17;5.55;;;0.43;;
72319;SDS011;60269;52.502;16.732;2023-12-20T20:32:49;7.47;;;0.67;;
72319;SDS011;60269;52.502;16.732;2023-12-20T20:36:23;10.15;;;0.95;;
72319;SDS011;60269;52.502;16.732;2023-12-20T20:39:55;4.63;;;0.65;;
72319;SDS011;60269;52.502;16.732;2023-12-20T20:43:28;10.15;;;0.90;;
72319;SDS011;60269;52.502;16.732;2023-12-20T20:47:01;6.03;;;1.20;;
72319;SDS011;60269;52.502;16.732;2023-12-20T20:50:33;4.50;;;0.57;;
72319;SDS011;60269;52.502;16.732;2023-12-20T20:54:05;9.52;;;1.05;;
72319;SDS011;60269;52.502;16.732;2023-12-20T20:57:49;5.80;;;0.80;;
72319;SDS011;60269;52.502;16.732;2023-12-20T21:01:22;8.40;;;1.10;;
72319;SDS011;60269;52.502;16.732;2023-12-20T21:04:54;4.05;;;0.82;;
72319;SDS011;60269;52.502;16.732;2023-12-20T21:08:26;5.77;;;1.13;;
72319;SDS011;60269;52.502;16.732;2023-12-20T21:11:58;11.52;;;1.02;;